Time;durP1;ratioP1;P1;durP2;ratioP2;P2;SDS_P1;SDS_P2;PMS_P1;PMS_P2;Temp;Humidity;BMP_temperature;BMP_pressure;BME280_temperature;BME280_humidity;BME280_pressure;Samples;Min_cycle;Max_cycle;Signal;HPM_P1;HPM_P2
2021/04/29 00:01:25;;;;;;;26.47;16.07;;;;;;;3.11;83.45;98664.37;1743431;82;21158;-51
2021/04/29 00:03:55;;;;;;;32.10;19.47;;;;;;;3.14;83.56;98652.80;1743597;81;21190;-49
2021/04/29 00:06:24;;;;;;;27.60;16.90;;;;;;;3.14;83.69;98653.60;1743535;82;21166;-49
2021/04/29 00:08:54;;;;;;;34.80;27.33;;;;;;;3.14;83.89;98656.70;1746235;81;21139;-50
2021/04/29 00:11:24;;;;;;;32.17;25.57;;;;;;;3.11;84.22;98652.65;1749255;81;21170;-51
2021/04/29 00:13:54;;;;;;;35.77;23.53;;;;;;;3.08;84.36;98659.47;1749517;82;21593;-51
2021/04/29 00:16:23;;;;;;;29.73;19.40;;;;;;;3.05;84.60;98649.89;1749260;81;21182;-49
2021/04/29 00:18:53;;;;;;;22.73;12.23;;;;;;;3.03;84.85;98653.94;1749234;82;21161;-50
2021/04/29 00:21:23;;;;;;;20.03;10.83;;;;;;;3.01;85.28;98641.59;1749247;81;21170;-50
2021/04/29 00:23:52;;;;;;;18.83;11.57;;;;;;;3.02;85.76;98645.81;1749243;81;21135;-51
2021/04/29 00:26:21;;;;;;;18.30;10.30;;;;;;;3.04;86.23;98647.78;1749449;82;21772;-50
2021/04/29 00:28:53;;;;;;;19.80;11.20;;;;;;;3.05;86.23;98641.59;1749353;82;21288;-49
2021/04/29 00:31:22;;;;;;;22.27;11.67;;;;;;;3.07;86.46;98647.44;1749513;82;21617;-50
2021/04/29 00:33:51;;;;;;;21.03;11.83;;;;;;;3.09;86.63;98644.66;1749227;81;21308;-50
2021/04/29 00:36:21;;;;;;;21.93;12.03;;;;;;;3.16;86.90;98652.16;1749249;82;21240;-49
2021/04/29 00:38:50;;;;;;;21.33;10.83;;;;;;;3.28;86.90;98659.14;1749251;82;21169;-50
2021/04/29 00:41:19;;;;;;;21.45;10.93;;;;;;;3.37;86.79;98652.42;1749574;81;21130;-50
2021/04/29 00:43:49;;;;;;;24.10;11.10;;;;;;;3.46;86.73;98650.13;1749531;82;21577;-52
2021/04/29 00:46:18;;;;;;;20.67;10.53;;;;;;;3.57;86.67;98655.48;1749508;82;21174;-50
2021/04/29 00:48:47;;;;;;;21.17;10.80;;;;;;;3.65;86.80;98650.22;1749405;82;21190;-49
2021/04/29 00:51:20;;;;;;;21.00;10.10;;;;;;;3.71;86.76;98641.73;1749497;82;21154;-50
2021/04/29 00:53:50;;;;;;;20.90;10.77;;;;;;;3.78;86.87;98643.16;1749535;82;21574;-49
2021/04/29 00:56:21;;;;;;;19.50;10.70;;;;;;;3.85;86.94;98642.02;1749195;82;21198;-50
2021/04/29 00:58:51;;;;;;;21.48;10.88;;;;;;;3.92;86.81;98638.55;1749617;82;21162;-50
2021/04/29 01:01:21;;;;;;;19.90;11.53;;;;;;;4.00;86.69;98639.00;1749223;82;21222;-49
2021/04/29 01:04:04;;;;;;;23.65;12.10;;;;;;;4.09;86.60;98643.69;1749255;81;21158;-48
2021/04/29 01:06:38;;;;;;;23.83;12.50;;;;;;;4.16;86.46;98638.91;1749534;82;21555;-49
2021/04/29 01:09:25;;;;;;;22.20;12.10;;;;;;;4.25;86.11;98641.80;1749333;82;21605;-49
2021/04/29 01:11:59;;;;;;;19.48;10.72;;;;;;;4.32;85.67;98635.40;1749235;82;21182;-50
2021/04/29 01:14:29;;;;;;;21.02;12.03;;;;;;;4.37;85.42;98639.61;1749540;81;21166;-50
2021/04/29 01:16:59;;;;;;;21.52;11.97;;;;;;;4.41;85.19;98636.95;1749340;82;21597;-50
2021/04/29 01:19:48;;;;;;;21.33;12.28;;;;;;;4.45;85.10;98630.91;1749238;81;21186;-50
2021/04/29 01:22:18;;;;;;;19.77;11.00;;;;;;;4.48;85.08;98626.66;1710401;82;21190;-49
2021/04/29 01:25:06;;;;;;;19.90;11.57;;;;;;;4.49;84.97;98621.75;1749414;82;21201;-50
2021/04/29 01:27:35;;;;;;;20.27;11.67;;;;;;;4.51;85.04;98623.68;1749187;82;21150;-50
2021/04/29 01:30:10;;;;;;;22.80;12.35;;;;;;;4.53;85.06;98623.84;1749238;82;21166;-49
2021/04/29 01:32:40;;;;;;;20.55;12.00;;;;;;;4.58;85.05;98618.07;1749195;82;21162;-49
2021/04/29 01:35:12;;;;;;;21.10;11.97;;;;;;;4.61;85.01;98617.73;1749593;82;21182;-50
2021/04/29 01:37:41;;;;;;;22.02;12.58;;;;;;;4.64;85.15;98612.15;1749350;82;21288;-50
2021/04/29 01:40:13;;;;;;;18.87;11.50;;;;;;;4.69;85.24;98610.33;1722939;82;21594;-50
2021/04/29 01:42:42;;;;;;;21.45;11.43;;;;;;;4.71;85.37;98610.48;1749599;82;21166;-50
2021/04/29 01:45:12;;;;;;;22.30;11.60;;;;;;;4.77;85.33;98603.74;1749380;81;21170;-50
2021/04/29 01:47:41;;;;;;;19.23;11.20;;;;;;;4.82;85.52;98606.64;1722345;82;21324;-49
2021/04/29 01:50:12;;;;;;;19.40;11.43;;;;;;;4.88;85.51;98606.43;1749146;81;21317;-50
2021/04/29 01:52:41;;;;;;;21.80;11.90;;;;;;;4.94;85.43;98601.80;1749670;81;21162;-50
2021/04/29 01:55:12;;;;;;;19.52;12.07;;;;;;;4.97;85.00;98601.43;1749290;82;21174;-49
2021/04/29 01:57:42;;;;;;;21.50;12.23;;;;;;;4.98;84.82;98590.80;1749515;81;21154;-50
2021/04/29 02:00:12;;;;;;;19.87;11.78;;;;;;;4.99;84.70;98591.14;1749295;82;21185;-50
2021/04/29 02:02:42;;;;;;;21.85;11.57;;;;;;;4.99;84.67;98596.86;1749855;82;21162;-50
2021/04/29 02:05:13;;;;;;;18.42;11.33;;;;;;;4.99;84.54;98596.36;1749429;81;21773;-49
2021/04/29 02:07:43;;;;;;;18.80;11.25;;;;;;;5.00;84.51;98598.47;1749565;82;21598;-50
2021/04/29 02:10:14;;;;;;;20.02;11.55;;;;;;;4.99;84.57;98596.36;1749253;82;21265;-49
2021/04/29 02:12:50;;;;;;;21.05;11.57;;;;;;;5.01;84.53;98591.76;1699972;82;21555;-50
2021/04/29 02:15:20;;;;;;;20.30;12.00;;;;;;;5.01;84.46;98589.14;1749299;82;21190;-49
2021/04/29 02:18:09;;;;;;;19.62;12.28;;;;;;;5.00;84.37;98593.25;1722317;82;21177;-50
2021/04/29 02:20:42;;;;;;;19.60;11.48;;;;;;;4.99;84.42;98589.83;1749284;81;21130;-50
2021/04/29 02:23:14;;;;;;;22.15;12.47;;;;;;;5.00;84.49;98589.33;1749332;82;21162;-49
2021/04/29 02:25:47;;;;;;;20.88;12.30;;;;;;;5.02;84.45;98587.34;1749573;82;21733;-51
2021/04/29 02:28:17;;;;;;;21.87;11.30;;;;;;;5.04;84.59;98595.80;1749450;81;21169;-52
2021/04/29 02:30:47;;;;;;;20.12;12.15;;;;;;;5.08;84.43;98595.77;1749341;82;21320;-50
2021/04/29 02:33:19;;;;;;;19.47;11.73;;;;;;;5.10;84.52;98588.55;1749607;82;21168;-48
2021/04/29 02:35:49;;;;;;;23.57;12.28;;;;;;;5.12;84.50;98585.78;1749361;82;21202;-50
2021/04/29 02:38:19;;;;;;;19.63;12.20;;;;;;;5.12;84.41;98594.93;1749866;82;21151;-51
2021/04/29 02:40:48;;;;;;;22.40;11.83;;;;;;;5.12;84.33;98589.70;1749601;82;21266;-50
2021/04/29 02:43:18;;;;;;;21.73;11.68;;;;;;;5.12;84.38;98591.01;1749613;82;22030;-49
2021/04/29 02:45:48;;;;;;;22.80;11.93;;;;;;;5.11;84.35;98592.81;1749678;82;21166;-50
2021/04/29 02:48:18;;;;;;;18.95;11.60;;;;;;;5.11;84.43;98591.51;1749486;81;21181;-49
2021/04/29 02:50:47;;;;;;;20.62;11.80;;;;;;;5.11;84.40;98586.28;1749689;82;21213;-49
2021/04/29 02:53:20;;;;;;;21.90;12.70;;;;;;;5.13;84.43;98585.59;1749437;82;21172;-49
2021/04/29 02:55:49;;;;;;;21.68;13.38;;;;;;;5.12;84.29;98592.31;1749311;82;21308;-50
2021/04/29 02:58:19;;;;;;;26.57;16.80;;;;;;;5.09;84.34;98594.77;1749313;81;21198;-49
2021/04/29 03:00:48;;;;;;;23.52;14.05;;;;;;;5.06;84.48;98586.81;1749481;82;21146;-49
2021/04/29 03:03:18;;;;;;;24.20;15.35;;;;;;;5.01;84.70;98594.87;1749543;82;21205;-50
2021/04/29 03:05:48;;;;;;;24.12;15.93;;;;;;;4.96;85.03;98585.45;1749246;82;21153;-50
2021/04/29 03:08:17;;;;;;;24.20;14.33;;;;;;;4.90;85.46;98582.23;1749680;82;21583;-49
2021/04/29 03:10:46;;;;;;;21.07;13.55;;;;;;;4.82;85.89;98588.83;1743924;82;21186;-49
2021/04/29 03:13:16;;;;;;;23.57;12.28;;;;;;;4.73;86.54;98594.13;1743493;81;21142;-49
2021/04/29 03:15:45;;;;;;;20.60;12.93;;;;;;;4.66;87.10;98595.83;1743674;82;21166;-49
2021/04/29 03:18:15;;;;;;;21.45;13.03;;;;;;;4.62;87.48;98593.75;1743478;82;21202;-50
2021/04/29 03:20:44;;;;;;;21.07;13.23;;;;;;;4.57;87.98;98595.57;1743793;81;21590;-50
2021/04/29 03:23:14;;;;;;;26.00;13.83;;;;;;;4.53;88.28;98600.84;1743449;81;21190;-49
2021/04/29 03:25:44;;;;;;;21.20;12.93;;;;;;;4.49;88.60;98599.56;1743740;81;21566;-50
2021/04/29 03:28:14;;;;;;;23.40;13.30;;;;;;;4.46;88.89;98597.28;1743717;82;21183;-50
2021/04/29 03:30:43;;;;;;;25.48;13.80;;;;;;;4.43;89.14;98595.05;1743448;82;21178;-49
2021/04/29 03:33:12;;;;;;;21.57;12.60;;;;;;;4.42;89.24;98602.56;1743480;82;21356;-50
2021/04/29 03:35:42;;;;;;;20.33;12.67;;;;;;;4.53;89.43;98602.96;1743745;82;21341;-51
2021/04/29 03:38:11;;;;;;;19.02;11.93;;;;;;;4.91;88.84;98604.25;1743489;82;21186;-51
2021/04/29 03:40:41;;;;;;;19.87;11.57;;;;;;;5.46;86.81;98603.55;1743758;81;21178;-52
2021/04/29 03:43:10;;;;;;;18.87;11.88;;;;;;;6.04;84.21;98612.33;1743669;81;21629;-50
2021/04/29 03:45:40;;;;;;;18.30;11.10;;;;;;;6.57;81.57;98608.44;1743434;81;21185;-51
2021/04/29 03:48:11;;;;;;;;;;;;;;;7.12;78.92;98606.86;1745954;81;21586;-50
2021/04/29 03:50:42;;;;;;;18.97;11.00;;;;;;;7.64;75.77;98598.98;1743856;82;20509;-50
2021/04/29 03:53:11;;;;;;;19.98;11.70;;;;;;;8.02;72.97;98602.95;1743427;82;21162;-51
2021/04/29 03:55:41;;;;;;;18.98;11.25;;;;;;;8.34;70.56;98603.55;1743462;82;21191;-50
2021/04/29 03:58:10;;;;;;;17.82;10.88;;;;;;;8.62;69.32;98603.42;1743493;81;21138;-50
2021/04/29 04:00:40;;;;;;;18.87;11.30;;;;;;;8.99;67.33;98609.08;1743797;82;21650;-49
2021/04/29 04:03:09;;;;;;;20.77;11.38;;;;;;;9.38;65.79;98596.89;1743408;81;21174;-50
2021/04/29 04:05:39;;;;;;;19.37;11.43;;;;;;;9.73;64.16;98606.60;1743571;82;21211;-52
2021/04/29 04:08:08;;;;;;;18.90;11.15;;;;;;;10.07;62.70;98601.49;1743699;82;21724;-51
2021/04/29 04:10:37;;;;;;;18.60;11.08;;;;;;;10.45;60.97;98609.42;1743622;82;21205;-51
2021/04/29 04:13:06;;;;;;;18.65;11.50;;;;;;;10.76;59.33;98605.95;1743554;81;21339;-50
2021/04/29 04:15:38;;;;;;;19.42;10.82;;;;;;;11.04;58.07;98599.44;1715503;82;21193;-50
2021/04/29 04:18:08;;;;;;;16.20;9.50;;;;;;;11.26;56.69;98595.38;1743527;82;21186;-50
2021/04/29 04:20:39;;;;;;;17.73;10.72;;;;;;;11.44;55.83;98601.18;1743967;82;21595;-50
2021/04/29 04:23:08;;;;;;;20.82;10.60;;;;;;;11.70;54.91;98590.85;1743495;82;21179;-50
2021/04/29 04:25:40;;;;;;;17.17;10.03;;;;;;;12.16;53.52;98588.17;1743393;82;21159;-50
2021/04/29 04:28:09;;;;;;;15.90;9.63;;;;;;;12.16;53.52;98588.17;1743351;82;21170;-50
2021/04/29 04:30:39;;;;;;;20.00;10.30;;;;;;;12.40;51.57;98590.37;1743962;82;21194;-51
2021/04/29 04:33:08;;;;;;;19.75;9.38;;;;;;;12.47;51.79;98586.59;1743390;81;21518;-51
2021/04/29 04:35:39;;;;;;;18.55;9.75;;;;;;;12.75;51.01;98583.31;1743900;82;21618;-50
2021/04/29 04:38:08;;;;;;;17.30;9.78;;;;;;;13.21;49.39;98576.45;1743841;82;21349;-49
2021/04/29 04:40:38;;;;;;;18.07;9.55;;;;;;;13.21;49.39;98576.45;1743779;82;21614;-51
2021/04/29 04:43:07;;;;;;;21.33;9.95;;;;;;;13.40;49.09;98577.64;1743686;82;21182;-49
2021/04/29 04:45:37;;;;;;;16.95;9.63;;;;;;;13.54;47.77;98586.96;1743763;82;21202;-49
2021/04/29 04:48:07;;;;;;;16.37;9.18;;;;;;;13.56;47.99;98583.55;1743352;82;21134;-50
2021/04/29 04:50:37;;;;;;;15.13;8.93;;;;;;;13.79;47.67;98584.02;1743580;82;21297;-50
2021/04/29 04:53:06;;;;;;;14.13;8.95;;;;;;;14.07;46.96;98569.45;1743638;82;21312;-51
2021/04/29 04:55:41;;;;;;;20.25;8.98;;;;;;;14.39;46.16;98576.09;1743652;81;21764;-50
2021/04/29 04:58:06;;;;;;;20.65;9.08;;;;;;;14.54;45.58;98590.98;1743114;81;21138;-50
2021/04/29 05:00:37;;;;;;;15.93;8.78;;;;;;;14.55;45.01;98580.66;1743406;82;21170;-52
2021/04/29 05:03:06;;;;;;;18.00;9.48;;;;;;;14.61;44.73;98581.81;1740570;81;21148;-52
2021/04/29 05:05:38;;;;;;;16.97;9.33;;;;;;;14.75;44.53;98582.33;1735637;83;21161;-50
2021/04/29 05:11:20;;;;;;;17.45;9.08;;;;;;;15.05;44.08;98584.63;1691894;83;21507;-56
2021/04/29 05:13:50;;;;;;;18.70;9.15;;;;;;;15.33;43.37;98585.03;1715188;83;21206;-56
2021/04/29 05:16:21;;;;;;;19.85;9.28;;;;;;;15.41;43.06;98575.83;1718458;83;21209;-55
2021/04/29 05:18:50;;;;;;;15.90;8.60;;;;;;;15.67;42.63;98570.36;1716328;83;21185;-58
2021/04/29 05:21:19;;;;;;;15.65;8.58;;;;;;;15.76;42.10;98567.53;1684164;83;21177;-54
2021/04/29 05:23:48;;;;;;;15.48;8.58;;;;;;;15.73;42.28;98572.55;1719173;82;21166;-55
2021/04/29 05:26:18;;;;;;;16.95;8.88;;;;;;;15.84;42.10;98568.97;1702424;83;21721;-59
2021/04/29 05:28:47;;;;;;;17.60;8.95;;;;;;;15.86;41.82;98576.95;1734333;82;21628;-59
2021/04/29 05:31:20;;;;;;;14.90;8.35;;;;;;;15.86;41.44;98577.48;1726876;82;21126;-55
2021/04/29 05:33:54;;;;;;;14.43;8.63;;;;;;;15.88;41.13;98569.53;1712581;82;21166;-54
2021/04/29 05:36:25;;;;;;;16.02;8.35;;;;;;;15.96;41.52;98570.16;1728502;82;21186;-54
2021/04/29 05:38:54;;;;;;;15.58;8.40;;;;;;;16.12;41.13;98574.59;1727217;81;21142;-53
2021/04/29 05:41:24;;;;;;;15.72;8.50;;;;;;;16.30;40.59;98576.90;1706427;83;21166;-55
2021/04/29 05:43:54;;;;;;;17.27;8.78;;;;;;;16.45;39.94;98572.23;1729544;82;21177;-53
2021/04/29 05:46:25;;;;;;;15.85;9.05;;;;;;;16.52;39.51;98579.50;1730737;81;21162;-56
2021/04/29 05:48:55;;;;;;;18.27;8.58;;;;;;;16.56;39.14;98573.92;1736830;81;21153;-54
2021/04/29 05:51:24;;;;;;;15.13;8.18;;;;;;;16.61;38.48;98578.49;1745265;81;21180;-55
2021/04/29 05:53:53;;;;;;;13.90;7.35;;;;;;;16.61;38.77;98583.81;1744119;81;21153;-52
2021/04/29 05:56:22;;;;;;;22.32;8.50;;;;;;;16.70;37.81;98573.83;1716158;82;21169;-53
2021/04/29 05:58:51;;;;;;;16.77;8.13;;;;;;;16.56;37.43;98570.47;1730912;82;21106;-56
2021/04/29 06:01:20;;;;;;;14.53;7.85;;;;;;;16.37;37.84;98577.48;1727552;82;21122;-53
2021/04/29 06:03:53;;;;;;;14.40;7.65;;;;;;;16.37;37.65;98577.48;1701501;83;21174;-56
2021/04/29 06:06:21;;;;;;;12.60;7.15;;;;;;;16.27;37.94;98577.91;1721169;82;21166;-54
2021/04/29 06:08:51;;;;;;;16.82;7.33;;;;;;;16.26;37.99;98571.80;1713590;82;21150;-54
2021/04/29 06:11:21;;;;;;;11.55;6.42;;;;;;;16.36;37.38;98578.55;1740073;82;21293;-54
2021/04/29 06:13:51;;;;;;;10.23;6.20;;;;;;;16.59;37.12;98580.62;1747420;81;21206;-52
2021/04/29 06:16:21;;;;;;;21.57;5.97;;;;;;;16.89;36.67;98580.08;1750883;82;21170;-54
2021/04/29 06:18:50;;;;;;;17.65;6.10;;;;;;;17.12;35.74;98586.37;1715738;82;21293;-54
2021/04/29 06:21:20;;;;;;;12.40;5.92;;;;;;;17.05;35.46;98575.14;1708227;84;21630;-51
2021/04/29 06:23:51;;;;;;;12.53;5.62;;;;;;;16.75;35.85;98582.92;1707877;84;21142;-55
2021/04/29 06:26:20;;;;;;;14.73;5.70;;;;;;;16.62;36.44;98577.44;1707487;84;21300;-53
2021/04/29 06:28:49;;;;;;;13.75;5.95;;;;;;;16.71;36.35;98581.28;1707272;84;21210;-51
2021/04/29 06:31:20;;;;;;;14.73;5.50;;;;;;;16.77;36.11;98574.14;1707548;84;21170;-52
2021/04/29 06:33:50;;;;;;;11.78;5.70;;;;;;;16.62;36.26;98571.58;1707302;83;21179;-54
2021/04/29 06:36:19;;;;;;;11.90;5.27;;;;;;;16.53;36.31;98572.31;1669091;84;21289;-55
2021/04/29 06:38:48;;;;;;;10.30;5.20;;;;;;;16.56;36.53;98571.80;1753060;81;21138;-54
2021/04/29 06:41:19;;;;;;;12.33;5.07;;;;;;;16.73;36.32;98567.98;1772658;81;21312;-49
2021/04/29 06:43:48;;;;;;;15.55;5.75;;;;;;;16.79;35.64;98562.70;1773505;81;21460;-55
2021/04/29 07:01:49;;;;;;;13.10;5.50;;;;;;;17.68;34.92;98561.35;1818573;79;22711;-53
2021/04/29 07:04:22;;;;;;;13.80;5.05;;;;;;;17.82;34.13;98569.69;1788287;80;21185;-57
2021/04/29 07:06:51;;;;;;;11.38;5.45;;;;;;;17.52;33.89;98567.14;1788404;80;21692;-62
2021/04/29 07:09:21;;;;;;;14.33;5.37;;;;;;;17.08;34.86;98573.81;1788319;80;21209;-57
2021/04/29 07:11:53;;;;;;;12.37;5.50;;;;;;;16.82;34.96;98563.53;1783203;80;21151;-60
2021/04/29 07:14:23;;;;;;;11.90;5.42;;;;;;;16.42;35.82;98573.55;1775532;80;21170;-55
2021/04/29 07:16:54;;;;;;;10.70;5.90;;;;;;;16.07;36.73;98574.01;1699729;83;21324;-56
2021/04/29 07:19:28;;;;;;;9.68;6.03;;;;;;;15.82;37.58;98570.52;1691520;83;21163;-56
2021/04/29 07:21:58;;;;;;;12.07;6.70;;;;;;;15.73;37.86;98572.55;1706898;82;21190;-54
2021/04/29 07:24:29;;;;;;;9.98;5.92;;;;;;;15.52;38.49;98572.27;1720476;83;21126;-56
2021/04/29 07:27:01;;;;;;;15.23;5.85;;;;;;;15.35;38.90;98573.63;1747859;81;21202;-54
2021/04/29 07:29:34;;;;;;;10.78;5.90;;;;;;;15.28;38.91;98578.33;1740660;82;21169;-53
2021/04/29 07:32:04;;;;;;;15.80;5.70;;;;;;;15.16;39.02;98576.30;1699236;83;21221;-55
2021/04/29 07:34:33;;;;;;;13.08;6.15;;;;;;;14.95;39.74;98573.06;1728487;83;21561;-54
2021/04/29 07:37:04;;;;;;;8.90;5.33;;;;;;;14.78;40.21;98577.05;1728052;83;21168;-57
2021/04/29 07:39:36;;;;;;;15.93;6.08;;;;;;;14.64;40.52;98573.12;1728403;83;21121;-53
2021/04/29 07:42:07;;;;;;;26.55;6.22;;;;;;;14.49;40.45;98575.78;1728376;83;21150;-58
2021/04/29 07:44:36;;;;;;;13.32;5.85;;;;;;;14.33;40.77;98571.22;1733449;81;21173;-55
2021/04/29 07:47:07;;;;;;;;;;;;;;;14.19;41.46;98568.08;1717384;83;21245;-55
2021/04/29 07:49:39;;;;;;;11.90;5.72;;;;;;;14.14;41.94;98565.86;1748531;82;20138;-57
2021/04/29 07:52:09;;;;;;;13.10;6.27;;;;;;;14.11;41.81;98571.13;1748899;82;21150;-54
2021/04/29 07:54:38;;;;;;;11.68;6.22;;;;;;;14.02;42.38;98569.88;1764615;80;21614;-55
2021/04/29 07:57:08;;;;;;;14.68;6.17;;;;;;;13.94;42.97;98564.45;1727729;82;21612;-55
2021/04/29 07:59:38;;;;;;;14.60;6.60;;;;;;;13.92;43.06;98561.73;1706633;83;21315;-59
2021/04/29 08:02:07;;;;;;;10.58;5.53;;;;;;;13.93;43.31;98560.69;1713220;83;21186;-54
2021/04/29 08:04:37;;;;;;;12.23;6.00;;;;;;;13.91;43.17;98563.58;1714984;83;21153;-55
2021/04/29 08:07:06;;;;;;;21.75;6.37;;;;;;;13.94;43.54;98557.02;1710756;83;21743;-56
2021/04/29 08:09:37;;;;;;;10.38;5.70;;;;;;;13.92;43.46;98561.21;1711398;83;21601;-57
2021/04/29 08:12:07;;;;;;;13.20;6.40;;;;;;;13.87;43.69;98555.81;1707259;83;21308;-54
2021/04/29 08:14:36;;;;;;;15.70;6.25;;;;;;;13.90;43.59;98558.00;1699276;83;21186;-60
2021/04/29 08:17:06;;;;;;;12.73;6.00;;;;;;;13.95;43.72;98552.80;1725465;82;21214;-60
2021/04/29 08:19:36;;;;;;;10.97;5.97;;;;;;;13.89;44.12;98544.48;1694703;83;21130;-55
2021/04/29 08:22:05;;;;;;;12.07;6.05;;;;;;;13.92;44.39;98549.28;1706671;84;21189;-54
2021/04/29 08:24:35;;;;;;;9.05;5.37;;;;;;;14.05;44.63;98554.84;1714742;83;21200;-52
2021/04/29 08:27:05;;;;;;;9.93;5.67;;;;;;;14.13;43.99;98553.65;1704459;82;21229;-62
2021/04/29 08:29:35;;;;;;;9.78;5.08;;;;;;;14.13;43.99;98537.75;1707467;83;21158;-55
2021/04/29 08:32:06;;;;;;;12.23;5.50;;;;;;;14.18;43.92;98537.31;1706594;83;21186;-62
2021/04/29 08:34:35;;;;;;;15.05;5.65;;;;;;;14.25;44.43;98534.51;1702842;83;21194;-57
2021/04/29 08:37:05;;;;;;;10.50;5.25;;;;;;;14.37;44.24;98537.89;1730305;82;21292;-56
2021/04/29 08:39:35;;;;;;;9.23;5.70;;;;;;;14.47;43.94;98538.09;1729855;82;21356;-57
2021/04/29 08:42:06;;;;;;;10.90;5.05;;;;;;;14.53;43.81;98525.72;1733870;82;21288;-52
2021/04/29 08:44:36;;;;;;;11.90;5.85;;;;;;;14.49;43.75;98534.67;1729496;82;21178;-59
2021/04/29 08:47:07;;;;;;;10.88;5.85;;;;;;;14.51;44.23;98537.11;1715914;82;21211;-54
2021/04/29 08:49:40;;;;;;;23.32;7.25;;;;;;;14.64;44.57;98529.34;1730015;82;21138;-58
2021/04/29 08:52:09;;;;;;;14.65;6.55;;;;;;;14.78;44.39;98531.41;1703285;83;21169;-56
2021/04/29 08:54:39;;;;;;;12.03;5.92;;;;;;;14.84;44.03;98518.50;1698201;84;21319;-56
2021/04/29 08:57:08;;;;;;;11.43;6.40;;;;;;;14.88;44.14;98526.79;1702984;83;21196;-57
2021/04/29 08:59:37;;;;;;;12.30;6.40;;;;;;;14.97;44.41;98513.39;1760111;81;21243;-60
2021/04/29 09:02:07;;;;;;;13.70;6.03;;;;;;;15.00;44.42;98520.05;1707795;83;21217;-58
2021/04/29 09:04:42;;;;;;;15.35;6.55;;;;;;;15.01;44.74;98506.53;1706565;84;21181;-52
2021/04/29 09:07:15;;;;;;;12.63;6.72;;;;;;;15.02;44.51;98509.98;1705788;83;21177;-55
2021/04/29 09:09:45;;;;;;;13.48;6.53;;;;;;;15.03;44.55;98501.80;1742115;81;21190;-58
2021/04/29 09:12:14;;;;;;;13.25;6.67;;;;;;;15.05;44.75;98516.14;1741178;82;21191;-57
2021/04/29 09:14:43;;;;;;;13.48;6.53;;;;;;;15.14;45.13;98505.40;1765258;81;21899;-53
2021/04/29 09:17:24;;;;;;;10.45;6.10;;;;;;;15.26;45.17;98499.97;1769737;81;21289;-57
2021/04/29 09:19:54;;;;;;;18.50;6.95;;;;;;;15.38;45.13;98498.00;1691785;84;21611;-57
2021/04/29 09:22:24;;;;;;;13.72;6.53;;;;;;;15.51;44.82;98484.86;1682664;84;21207;-55
2021/04/29 09:42:37;;;;;;;11.50;5.33;;;;;;;15.89;43.66;98462.19;1802424;79;23365;-53
2021/04/29 09:45:33;;;;;;;13.38;5.90;;;;;;;15.92;43.78;98461.66;1806529;77;21176;-52
2021/04/29 09:48:11;;;;;;;21.10;6.70;;;;;;;15.99;43.71;98462.78;1813772;79;21161;-55
2021/04/29 09:50:43;;;;;;;14.43;6.08;;;;;;;16.05;42.98;98453.00;1816723;79;21810;-51
2021/04/29 09:53:14;;;;;;;13.15;6.45;;;;;;;15.99;43.30;98456.14;1815065;79;21522;-55
2021/04/29 09:55:48;;;;;;;10.78;5.95;;;;;;;15.99;43.68;98457.47;1821277;78;21196;-55
2021/04/29 09:58:23;;;;;;;10.93;5.92;;;;;;;16.05;43.73;98449.81;1822876;79;21105;-51
2021/04/29 10:00:51;;;;;;;11.40;6.42;;;;;;;16.13;43.39;98444.58;1814510;78;21129;-58
2021/04/29 10:03:22;;;;;;;13.95;5.83;;;;;;;16.15;42.91;98443.78;1838770;77;21616;-52
2021/04/29 10:05:53;;;;;;;12.80;6.23;;;;;;;16.15;43.33;98440.59;1821625;77;21173;-54
2021/04/29 10:08:27;;;;;;;11.43;6.03;;;;;;;16.24;43.61;98442.27;1818271;77;21101;-56
2021/04/29 10:10:57;;;;;;;10.78;5.60;;;;;;;16.39;42.92;98435.72;1815453;79;21107;-54
2021/04/29 10:13:32;;;;;;;10.68;5.47;;;;;;;16.48;42.89;98438.72;1823011;79;21172;-55
2021/04/29 10:16:02;;;;;;;11.75;6.08;;;;;;;16.51;42.59;98427.55;1813293;78;21581;-55
2021/04/29 10:18:32;;;;;;;10.98;6.15;;;;;;;16.50;42.64;98427.28;1779618;79;21194;-55
2021/04/29 10:21:01;;;;;;;11.93;5.87;;;;;;;16.56;42.77;98423.59;1777675;81;21162;-57
2021/04/29 10:23:31;;;;;;;15.18;5.40;;;;;;;16.65;42.03;98409.30;1790674;79;21152;-53
2021/04/29 10:26:01;;;;;;;17.87;5.50;;;;;;;16.65;41.82;98419.41;1822982;78;21185;-57
2021/04/29 10:28:42;;;;;;;9.38;5.33;;;;;;;16.57;41.73;98405.77;1828233;77;21245;-54
2021/04/29 10:31:24;;;;;;;;;;;;;;;16.54;41.76;98405.77;1797602;79;21174;-54
2021/04/29 10:33:57;;;;;;;10.63;5.03;;;;;;;16.64;42.12;98415.67;1779751;78;20295;-52
2021/04/29 10:36:47;;;;;;;11.15;5.30;;;;;;;16.73;41.87;98407.48;1803410;78;21136;-53
2021/04/29 10:39:24;;;;;;;11.70;5.08;;;;;;;16.80;41.33;98396.08;1780097;79;23586;-55
2021/04/29 10:42:07;;;;;;;16.40;5.65;;;;;;;16.84;41.61;98397.70;1728050;82;21158;-56
2021/04/29 10:44:44;;;;;;;12.20;5.03;;;;;;;16.89;41.65;98399.86;1734632;80;21122;-60
2021/04/29 10:47:29;;;;;;;15.23;5.72;;;;;;;16.97;42.04;98399.87;1751575;81;21154;-59
2021/04/29 10:50:12;;;;;;;11.57;5.22;;;;;;;17.08;41.33;98388.74;1689894;84;21174;-58
2021/04/29 10:52:54;;;;;;;13.18;5.40;;;;;;;17.18;41.34;98388.25;1663677;85;21193;-58
2021/04/29 10:55:33;;;;;;;9.93;5.25;;;;;;;17.31;41.08;98390.14;1684444;85;21617;-56
2021/04/29 10:58:04;;;;;;;17.60;5.30;;;;;;;17.37;40.78;98376.57;1683947;84;21209;-56
2021/04/29 11:00:36;;;;;;;8.28;4.60;;;;;;;17.39;40.82;98367.80;1684359;85;21169;-57
2021/04/29 11:03:07;;;;;;;13.30;5.00;;;;;;;17.42;40.97;98384.58;1691718;84;21645;-57
2021/04/29 11:05:37;;;;;;;15.80;6.20;;;;;;;17.49;41.18;98379.81;1689908;84;21155;-56
2021/04/29 11:08:12;;;;;;;15.58;5.70;;;;;;;17.64;41.18;98377.69;1743593;82;21173;-58
2021/04/29 11:10:42;;;;;;;16.93;9.18;;;;;;;17.75;40.80;98376.67;1725668;82;21126;-57
2021/04/29 11:13:22;;;;;;;8.58;5.95;;;;;;;17.86;40.75;98373.48;1708618;84;21195;-57
2021/04/29 11:15:58;;;;;;;12.95;7.85;;;;;;;17.94;40.30;98372.93;1709493;84;21198;-58
2021/04/29 11:18:28;;;;;;;13.58;5.30;;;;;;;17.99;40.43;98364.94;1701459;84;21151;-59
2021/04/29 11:21:00;;;;;;;8.03;4.95;;;;;;;18.02;40.06;98368.95;1700035;84;21223;-61
2021/04/29 11:23:44;;;;;;;7.75;4.50;;;;;;;17.99;40.52;98380.94;1701375;84;21156;-61
2021/04/29 11:26:17;;;;;;;12.25;4.90;;;;;;;17.99;39.83;98381.47;1701394;84;21203;-57
2021/04/29 11:28:51;;;;;;;14.45;5.10;;;;;;;17.95;40.32;98381.22;1701859;84;21599;-58
2021/04/29 11:31:21;;;;;;;10.45;5.08;;;;;;;17.94;40.75;98371.59;1670298;84;21221;-60
2021/04/29 11:33:52;;;;;;;18.77;5.50;;;;;;;18.03;40.42;98370.55;1662632;85;21559;-62
2021/04/29 11:36:31;;;;;;;11.45;5.22;;;;;;;17.98;40.45;98374.00;1655687;87;21539;-59
2021/04/29 11:38:59;;;;;;;14.28;5.58;;;;;;;17.92;40.41;98364.41;1661576;85;21186;-60
2021/04/29 11:41:29;;;;;;;18.25;5.50;;;;;;;17.95;40.86;98362.55;1666292;86;21151;-60
2021/04/29 11:44:07;;;;;;;12.28;5.00;;;;;;;17.98;40.74;98361.20;1669107;86;21534;-58
2021/04/29 11:46:38;;;;;;;15.03;6.05;;;;;;;17.99;40.62;98366.27;1669155;86;21701;-57
2021/04/29 11:49:08;;;;;;;11.97;5.00;;;;;;;18.03;40.55;98367.34;1684916;84;21607;-54
2021/04/29 11:51:47;;;;;;;13.40;4.95;;;;;;;18.07;40.10;98354.81;1680494;84;21530;-60
2021/04/29 11:54:19;;;;;;;11.83;5.12;;;;;;;18.01;40.33;98342.02;1696578;84;21167;-62
2021/04/29 11:56:49;;;;;;;12.53;5.28;;;;;;;17.94;40.69;98349.47;1696726;84;21143;-58
2021/04/29 11:59:19;;;;;;;16.42;6.05;;;;;;;17.96;40.45;98348.69;1696325;84;21163;-58
2021/04/29 12:01:56;;;;;;;14.70;5.12;;;;;;;18.01;40.87;98339.35;1644002;86;21138;-61
2021/04/29 12:04:26;;;;;;;14.43;5.03;;;;;;;18.01;40.30;98340.69;1668582;86;21170;-59
2021/04/29 12:07:02;;;;;;;8.25;4.72;;;;;;;17.90;40.72;98330.56;1667030;84;21279;-61
2021/04/29 12:09:33;;;;;;;15.83;5.50;;;;;;;17.75;40.89;98332.69;1672475;84;21138;-60
2021/04/29 12:12:19;;;;;;;11.53;5.70;;;;;;;17.73;41.24;98329.49;1668251;84;21617;-60
2021/04/29 12:14:54;;;;;;;19.30;11.65;;;;;;;17.82;41.05;98320.95;1668495;86;21328;-58
2021/04/29 12:17:26;;;;;;;18.77;6.53;;;;;;;17.90;41.21;98325.22;1668501;86;21163;-62
2021/04/29 12:19:56;;;;;;;13.85;5.90;;;;;;;18.03;41.05;98314.54;1695410;84;21617;-59
2021/04/29 12:22:26;;;;;;;11.33;5.30;;;;;;;18.06;40.46;98321.98;1686601;84;21638;-64